Time;durP1;ratioP1;P1;durP2;ratioP2;P2;SDS_P1;SDS_P2;PMS_P1;PMS_P2;Temp;Humidity;BMP_temperature;BMP_pressure;BME280_temperature;BME280_humidity;BME280_pressure;Samples;Min_cycle;Max_cycle;Signal;HPM_P1;HPM_P2
2021/05/16 00:01:53;;;;;;;3.13;2.93;;;10.20;99.90;;;;;;5018673;28;20204;-70
2021/05/16 00:04:19;;;;;;;3.50;3.20;;;10.20;99.90;;;;;;5017478;28;20178;-70
2021/05/16 00:06:45;;;;;;;2.90;2.73;;;10.20;99.90;;;;;;5019825;28;20260;-70
2021/05/16 00:09:10;;;;;;;3.50;3.20;;;10.20;99.90;;;;;;5021341;28;20195;-70
2021/05/16 00:11:36;;;;;;;4.00;3.70;;;10.20;99.90;;;;;;5019163;28;20170;-70
2021/05/16 00:14:02;;;;;;;3.03;2.83;;;10.20;99.90;;;;;;5018402;28;20213;-70
2021/05/16 00:16:28;;;;;;;2.93;2.80;;;10.20;99.90;;;;;;5016534;28;20366;-70
2021/05/16 00:18:54;;;;;;;2.87;2.77;;;10.20;99.90;;;;;;5021801;28;20550;-70
2021/05/16 00:21:19;;;;;;;3.30;3.07;;;10.10;99.90;;;;;;5019803;28;20182;-70
2021/05/16 00:23:45;;;;;;;3.40;3.20;;;10.10;99.90;;;;;;5014358;28;20624;-70
2021/05/16 00:26:10;;;;;;;3.40;3.20;;;10.20;99.90;;;;;;5017807;28;20530;-70
2021/05/16 00:28:36;;;;;;;3.37;3.17;;;10.20;99.90;;;;;;5022605;28;20352;-70
2021/05/16 00:31:02;;;;;;;3.10;3.00;;;10.20;99.90;;;;;;5016014;28;20257;-70
2021/05/16 00:33:28;;;;;;;7.00;3.37;;;10.20;99.90;;;;;;5014151;28;20181;-70
2021/05/16 00:35:53;;;;;;;3.80;3.50;;;10.20;99.90;;;;;;5016874;28;20182;-70
2021/05/16 00:38:19;;;;;;;3.20;3.00;;;10.20;99.90;;;;;;5017790;28;20182;-70
2021/05/16 00:40:45;;;;;;;3.53;3.30;;;10.20;99.90;;;;;;5015309;28;20183;-70
2021/05/16 00:43:12;;;;;;;3.63;3.37;;;10.20;99.90;;;;;;5020935;28;20616;-70
2021/05/16 00:45:38;;;;;;;3.97;3.77;;;10.20;99.90;;;;;;5020170;28;20507;-70
2021/05/16 00:48:06;;;;;;;3.30;3.10;;;10.20;99.90;;;;;;5017289;28;20460;-70
2021/05/16 00:50:38;;;;;;;3.17;2.97;;;10.20;99.90;;;;;;5020364;28;20428;-70
2021/05/16 00:53:04;;;;;;;3.37;3.17;;;10.20;99.90;;;;;;5022175;28;20440;-70
2021/05/16 00:55:30;;;;;;;3.60;3.33;;;10.20;99.90;;;;;;5020292;28;20453;-70
2021/05/16 00:57:56;;;;;;;3.50;3.20;;;10.20;99.90;;;;;;5018248;28;20766;-70
2021/05/16 01:00:28;;;;;;;3.60;3.40;;;10.20;99.90;;;;;;5019839;28;20447;-70
2021/05/16 01:02:53;;;;;;;3.67;3.37;;;10.20;99.90;;;;;;5018140;28;20213;-70
2021/05/16 01:05:20;;;;;;;3.53;3.23;;;10.20;99.90;;;;;;5020222;28;20539;-70
2021/05/16 01:07:49;;;;;;;3.33;3.13;;;10.20;99.90;;;;;;5016637;28;20762;-70
2021/05/16 01:10:15;;;;;;;3.10;2.90;;;10.20;99.90;;;;;;5020717;28;21008;-70
2021/05/16 01:12:46;;;;;;;3.63;3.40;;;10.30;99.90;;;;;;5019495;28;20734;-70
2021/05/16 01:15:23;;;;;;;3.73;3.53;;;10.30;99.90;;;;;;5021451;28;20417;-70
2021/05/16 01:17:51;;;;;;;4.00;3.60;;;10.20;99.90;;;;;;5017281;28;20566;-70
2021/05/16 01:20:25;;;;;;;3.80;3.60;;;10.20;99.90;;;;;;5019292;28;20762;-70
2021/05/16 01:23:03;;;;;;;3.37;3.07;;;10.20;99.90;;;;;;5017490;28;20500;-70
2021/05/16 01:25:35;;;;;;;3.90;3.60;;;10.30;99.90;;;;;;5019925;28;20427;-70
2021/05/16 01:28:01;;;;;;;3.33;3.13;;;10.20;99.90;;;;;;5027648;28;20918;-70
2021/05/16 01:30:27;;;;;;;3.93;2.80;;;10.20;99.90;;;;;;5018141;28;20437;-70
2021/05/16 01:32:53;;;;;;;3.80;3.50;;;10.20;99.90;;;;;;5019009;28;20572;-70
2021/05/16 01:35:21;;;;;;;3.23;3.03;;;10.20;99.90;;;;;;5020235;28;20756;-70
2021/05/16 01:37:49;;;;;;;3.40;3.20;;;10.20;99.90;;;;;;5020077;28;20472;-70
2021/05/16 01:40:19;;;;;;;3.47;3.23;;;10.20;99.90;;;;;;5017816;28;20431;-70
2021/05/16 01:42:50;;;;;;;3.57;3.37;;;10.20;99.90;;;;;;5019111;28;20913;-70
2021/05/16 01:45:18;;;;;;;2.67;2.57;;;10.20;99.90;;;;;;5020290;28;20503;-70
2021/05/16 01:47:44;;;;;;;3.70;3.50;;;10.20;99.90;;;;;;5014505;28;20631;-70
2021/05/16 01:50:15;;;;;;;3.20;3.00;;;10.20;99.90;;;;;;5017338;28;20585;-70
2021/05/16 01:52:42;;;;;;;4.40;4.10;;;10.20;99.90;;;;;;5020596;28;20640;-70
2021/05/16 01:55:10;;;;;;;4.00;3.60;;;10.20;99.90;;;;;;5019092;28;20741;-70
2021/05/16 01:57:37;;;;;;;3.87;3.57;;;10.20;99.90;;;;;;5017108;28;20433;-70
2021/05/16 02:00:09;;;;;;;3.47;3.17;;;10.20;99.90;;;;;;5014378;28;20434;-70
2021/05/16 02:02:36;;;;;;;3.10;2.90;;;10.20;99.90;;;;;;5023130;28;20521;-70
2021/05/16 02:05:02;;;;;;;4.10;3.83;;;10.10;99.90;;;;;;5019694;28;20447;-70
2021/05/16 02:07:29;;;;;;;3.23;3.03;;;10.20;99.90;;;;;;5031567;28;20441;-70
2021/05/16 02:09:54;;;;;;;3.07;2.97;;;10.10;99.90;;;;;;5017317;28;20464;-70
2021/05/16 02:12:20;;;;;;;3.30;3.10;;;10.10;99.90;;;;;;5017923;28;20426;-70
2021/05/16 02:14:46;;;;;;;3.83;3.47;;;10.10;99.90;;;;;;5016720;28;20220;-70
2021/05/16 02:17:13;;;;;;;3.80;3.60;;;10.10;99.90;;;;;;5005948;28;20797;-70
2021/05/16 02:19:40;;;;;;;3.33;3.23;;;10.10;99.90;;;;;;5018553;28;20516;-70
2021/05/16 02:22:06;;;;;;;4.70;3.27;;;10.10;99.90;;;;;;5020287;28;20426;-70
2021/05/16 02:24:32;;;;;;;3.30;3.10;;;10.10;99.90;;;;;;5020736;28;20440;-70
2021/05/16 02:27:01;;;;;;;3.43;3.23;;;10.10;99.90;;;;;;5030424;28;20439;-70
2021/05/16 02:29:30;;;;;;;3.83;3.43;;;10.10;99.90;;;;;;5021205;28;20449;-70
2021/05/16 02:31:57;;;;;;;3.77;3.47;;;10.10;99.90;;;;;;5022073;28;20532;-70
2021/05/16 02:34:23;;;;;;;3.97;3.60;;;10.10;99.90;;;;;;5021866;28;20471;-70
2021/05/16 02:36:49;;;;;;;3.40;3.10;;;10.10;99.90;;;;;;5022245;28;20469;-70
2021/05/16 02:39:15;;;;;;;3.80;3.60;;;10.10;99.90;;;;;;5023107;28;20460;-70
2021/05/16 02:41:41;;;;;;;3.70;3.33;;;10.10;99.90;;;;;;5023408;28;20233;-70
2021/05/16 02:44:07;;;;;;;3.20;2.93;;;10.20;99.90;;;;;;5021827;28;20470;-70
2021/05/16 02:46:34;;;;;;;3.77;3.47;;;10.20;99.90;;;;;;5021013;28;20195;-70
2021/05/16 02:48:59;;;;;;;3.07;2.87;;;10.20;99.90;;;;;;5020122;28;20190;-70
2021/05/16 02:51:25;;;;;;;2.63;2.53;;;10.20;99.90;;;;;;5021227;28;20486;-70
2021/05/16 02:53:51;;;;;;;3.77;3.47;;;10.20;99.90;;;;;;5023601;28;20204;-70
2021/05/16 02:56:17;;;;;;;3.00;2.80;;;10.10;99.90;;;;;;5021159;28;20241;-70
2021/05/16 02:58:43;;;;;;;3.57;3.27;;;10.10;99.90;;;;;;5023557;28;20524;-70
2021/05/16 03:01:11;;;;;;;3.30;3.00;;;10.00;99.90;;;;;;5035206;28;20209;-71
2021/05/16 03:03:37;;;;;;;3.40;3.20;;;9.90;99.90;;;;;;5018549;28;20488;-70
2021/05/16 03:06:03;;;;;;;3.43;3.23;;;9.80;99.90;;;;;;5017040;28;20521;-70
2021/05/16 03:08:29;;;;;;;2.70;2.60;;;9.80;99.90;;;;;;5024929;28;20843;-70
2021/05/16 03:10:55;;;;;;;3.67;3.27;;;9.70;99.90;;;;;;5021433;28;20432;-70
2021/05/16 03:13:21;;;;;;;3.10;2.87;;;9.70;99.90;;;;;;5021493;28;20178;-70
2021/05/16 03:15:46;;;;;;;3.30;3.10;;;9.60;99.90;;;;;;5019659;28;20210;-70
2021/05/16 03:18:12;;;;;;;3.83;3.43;;;9.60;99.90;;;;;;5019896;28;20654;-70
2021/05/16 03:20:38;;;;;;;3.10;2.80;;;9.50;99.90;;;;;;5016850;28;20728;-70
2021/05/16 03:23:03;;;;;;;3.20;3.00;;;9.50;99.90;;;;;;5008687;28;20268;-70
2021/05/16 03:25:29;;;;;;;3.10;2.90;;;9.40;99.90;;;;;;5020047;28;20176;-70
2021/05/16 03:27:55;;;;;;;3.43;2.70;;;9.40;99.90;;;;;;5017426;28;20174;-70
2021/05/16 03:30:21;;;;;;;2.73;2.63;;;9.30;99.90;;;;;;5021672;28;20217;-70
2021/05/16 03:32:46;;;;;;;2.90;2.70;;;9.30;99.90;;;;;;5022979;28;20245;-70
2021/05/16 03:35:13;;;;;;;3.43;3.13;;;9.20;99.90;;;;;;5022221;28;20425;-70
2021/05/16 03:37:40;;;;;;;3.20;3.00;;;9.20;99.90;;;;;;5020738;28;20515;-70
2021/05/16 03:40:07;;;;;;;3.30;3.10;;;9.20;99.90;;;;;;5019479;28;20497;-70
2021/05/16 03:42:34;;;;;;;2.80;2.60;;;9.20;99.90;;;;;;5023459;28;20437;-70
2021/05/16 03:45:00;;;;;;;2.53;2.43;;;9.10;99.90;;;;;;5019906;28;20478;-70
2021/05/16 03:47:26;;;;;;;2.70;2.50;;;9.10;99.90;;;;;;5019985;28;20488;-70
2021/05/16 03:49:52;;;;;;;2.70;2.50;;;9.10;99.90;;;;;;5020559;28;20864;-70
2021/05/16 03:52:21;;;;;;;3.00;2.80;;;9.10;99.90;;;;;;5021056;28;20228;-70
2021/05/16 03:54:50;;;;;;;3.50;3.20;;;9.10;99.90;;;;;;5018955;28;20848;-70
2021/05/16 03:57:17;;;;;;;2.30;2.20;;;9.10;99.90;;;;;;5019254;28;20429;-70
2021/05/16 03:59:44;;;;;;;3.23;3.00;;;9.10;99.90;;;;;;5016289;28;20934;-70
2021/05/16 04:02:10;;;;;;;3.30;3.10;;;9.10;99.90;;;;;;5018759;28;20437;-70
2021/05/16 04:04:36;;;;;;;6.30;3.57;;;9.00;99.90;;;;;;5021502;28;20520;-70
2021/05/16 04:07:02;;;;;;;4.70;2.77;;;9.00;99.90;;;;;;5020148;28;20850;-70
2021/05/16 04:09:28;;;;;;;2.97;2.77;;;9.00;99.90;;;;;;5021559;28;20206;-71
2021/05/16 04:11:54;;;;;;;3.10;2.90;;;9.10;99.90;;;;;;5022097;28;20744;-71
2021/05/16 04:14:22;;;;;;;2.77;2.57;;;9.10;99.90;;;;;;5019203;28;20206;-71
2021/05/16 04:16:48;;;;;;;3.43;3.23;;;9.10;99.90;;;;;;5017870;28;20167;-71
2021/05/16 04:19:14;;;;;;;4.07;3.77;;;9.20;99.90;;;;;;5020543;28;20432;-71
2021/05/16 04:21:39;;;;;;;3.13;2.93;;;9.30;99.90;;;;;;5022860;28;20177;-71
2021/05/16 04:24:06;;;;;;;4.03;3.50;;;9.30;99.90;;;;;;5020408;28;20277;-71
2021/05/16 04:26:31;;;;;;;2.97;2.77;;;9.40;99.90;;;;;;5018894;28;20189;-71
2021/05/16 04:28:57;;;;;;;3.57;3.37;;;9.40;99.90;;;;;;5018146;28;20449;-71
2021/05/16 04:31:23;;;;;;;3.37;3.17;;;9.50;99.90;;;;;;5018397;28;20189;-71
2021/05/16 04:33:48;;;;;;;3.00;2.90;;;9.50;99.90;;;;;;5018933;28;20236;-71
2021/05/16 04:36:14;;;;;;;6.50;3.80;;;9.60;99.90;;;;;;5017898;28;20176;-71
2021/05/16 04:38:40;;;;;;;4.23;3.93;;;9.60;99.90;;;;;;5019865;28;20186;-70
2021/05/16 04:41:05;;;;;;;4.13;3.83;;;9.70;99.90;;;;;;5020721;28;20286;-70
2021/05/16 04:43:31;;;;;;;3.90;3.60;;;9.80;99.90;;;;;;5016971;28;20621;-70
2021/05/16 04:45:56;;;;;;;4.17;3.83;;;9.80;99.90;;;;;;5017673;28;20719;-71
2021/05/16 04:48:22;;;;;;;4.70;3.93;;;9.80;99.90;;;;;;5019551;28;20206;-70
2021/05/16 04:50:48;;;;;;;4.13;3.83;;;9.90;99.90;;;;;;5019377;28;20179;-70
2021/05/16 04:53:13;;;;;;;5.80;4.60;;;10.00;99.90;;;;;;5019197;28;20192;-70
2021/05/16 04:55:39;;;;;;;4.00;3.70;;;10.00;99.90;;;;;;5020091;28;20584;-70
2021/05/16 04:58:05;;;;;;;4.90;4.23;;;10.00;99.90;;;;;;5036064;28;20175;-70
2021/05/16 05:00:30;;;;;;;3.53;3.30;;;10.10;99.90;;;;;;5020609;28;20186;-71
2021/05/16 05:02:58;;;;;;;3.47;3.17;;;10.10;99.90;;;;;;5015978;28;20185;-71
2021/05/16 05:05:23;;;;;;;3.60;3.37;;;10.20;99.90;;;;;;5018784;28;20178;-70
2021/05/16 05:07:49;;;;;;;3.27;3.07;;;10.20;99.90;;;;;;5018928;28;20520;-70
2021/05/16 05:10:15;;;;;;;3.40;3.20;;;10.20;99.90;;;;;;5020120;28;20240;-70
2021/05/16 05:12:40;;;;;;;4.00;3.70;;;10.20;99.90;;;;;;5020531;28;20177;-70
2021/05/16 05:15:07;;;;;;;2.60;2.50;;;10.30;99.90;;;;;;5017426;28;20266;-70
2021/05/16 05:17:32;;;;;;;4.10;3.70;;;10.40;99.90;;;;;;5017264;28;20182;-70
2021/05/16 05:19:58;;;;;;;4.10;3.70;;;10.40;99.90;;;;;;5019659;28;20813;-70
2021/05/16 05:22:24;;;;;;;2.80;2.60;;;10.50;99.90;;;;;;5018364;28;20174;-70
2021/05/16 05:24:49;;;;;;;3.27;3.07;;;10.60;99.90;;;;;;5019377;28;20261;-70
2021/05/16 05:27:15;;;;;;;3.30;3.03;;;10.60;99.90;;;;;;5015538;28;20280;-70
2021/05/16 05:29:41;;;;;;;4.40;4.00;;;10.70;99.90;;;;;;5020027;28;20537;-70
2021/05/16 05:32:06;;;;;;;2.53;2.43;;;10.70;99.90;;;;;;5018410;28;20689;-70
2021/05/16 05:34:32;;;;;;;3.80;3.60;;;10.80;99.90;;;;;;5019071;28;20175;-71
2021/05/16 05:36:58;;;;;;;3.07;2.90;;;10.90;99.90;;;;;;5018370;28;20185;-70
2021/05/16 05:39:24;;;;;;;3.90;3.70;;;10.90;99.90;;;;;;5020355;28;20269;-70
2021/05/16 05:41:49;;;;;;;3.77;3.50;;;11.00;99.90;;;;;;5017108;28;20186;-70
2021/05/16 05:44:15;;;;;;;6.30;5.10;;;11.00;99.90;;;;;;5019463;28;20579;-70
2021/05/16 05:46:41;;;;;;;4.07;3.77;;;11.10;99.90;;;;;;5015857;28;20209;-70
2021/05/16 05:49:07;;;;;;;5.17;4.67;;;11.10;99.90;;;;;;5017241;28;20218;-70
2021/05/16 05:51:33;;;;;;;5.57;5.07;;;11.20;99.90;;;;;;5017969;28;20437;-71
2021/05/16 05:53:59;;;;;;;6.90;4.83;;;11.30;99.90;;;;;;5017904;28;20265;-70
2021/05/16 05:56:25;;;;;;;5.80;5.30;;;11.40;99.90;;;;;;5015663;28;20595;-71
2021/05/16 05:58:51;;;;;;;8.23;6.70;;;11.40;99.90;;;;;;5017620;28;20181;-70
2021/05/16 06:01:16;;;;;;;6.40;5.80;;;11.50;99.90;;;;;;5021469;28;20189;-70
2021/05/16 06:03:44;;;;;;;9.50;7.23;;;11.50;99.90;;;;;;5015326;28;20438;-70
2021/05/16 06:06:10;;;;;;;10.20;8.27;;;11.60;99.90;;;;;;5017700;28;20174;-71
2021/05/16 06:08:36;;;;;;;12.43;8.93;;;11.70;99.90;;;;;;5021947;28;20457;-70
2021/05/16 06:11:02;;;;;;;7.80;7.10;;;11.70;99.90;;;;;;5020225;28;20616;-70
2021/05/16 06:13:27;;;;;;;8.07;7.37;;;11.80;99.90;;;;;;5021722;28;20526;-70
2021/05/16 06:15:53;;;;;;;10.03;9.00;;;12.00;99.90;;;;;;5019113;28;20183;-70
2021/05/16 06:18:19;;;;;;;14.13;9.40;;;12.10;99.90;;;;;;5020373;28;20189;-70
2021/05/16 06:20:44;;;;;;;11.13;9.90;;;12.20;99.90;;;;;;5021865;28;20175;-70
2021/05/16 06:23:13;;;;;;;10.70;9.33;;;12.30;99.90;;;;;;5009426;28;20519;-70
2021/05/16 06:25:39;;;;;;;12.47;11.27;;;12.40;99.90;;;;;;5019926;28;20189;-70
2021/05/16 06:28:04;;;;;;;15.10;10.53;;;12.50;99.90;;;;;;5019118;28;20441;-70
2021/05/16 06:30:30;;;;;;;12.37;9.90;;;12.40;99.90;;;;;;5019738;28;20182;-70
2021/05/16 06:32:56;;;;;;;10.17;9.17;;;12.50;99.90;;;;;;5017357;28;20633;-71
2021/05/16 06:35:21;;;;;;;11.57;10.03;;;12.50;99.90;;;;;;5021664;28;20187;-71
2021/05/16 06:37:47;;;;;;;9.73;8.73;;;12.50;99.90;;;;;;5022159;28;20186;-73
2021/05/16 06:40:15;;;;;;;11.73;10.17;;;12.50;99.90;;;;;;5021386;28;20240;-70
2021/05/16 06:42:42;;;;;;;11.00;8.67;;;12.50;99.90;;;;;;5018445;28;20187;-70
2021/05/16 06:45:09;;;;;;;9.80;8.90;;;12.50;99.90;;;;;;5021555;28;20460;-73
2021/05/16 06:47:35;;;;;;;11.10;10.00;;;12.40;99.90;;;;;;5019533;28;20527;-71
2021/05/16 06:50:00;;;;;;;11.97;10.63;;;12.30;99.90;;;;;;5021442;28;20460;-70
2021/05/16 06:52:26;;;;;;;12.60;9.73;;;12.20;99.90;;;;;;5020529;28;20187;-70
2021/05/16 06:54:52;;;;;;;14.27;9.43;;;12.10;99.90;;;;;;5022210;28;20182;-71
2021/05/16 06:57:18;;;;;;;12.97;10.70;;;12.10;99.90;;;;;;5023295;28;20313;-71
2021/05/16 06:59:47;;;;;;;10.97;9.80;;;12.10;99.90;;;;;;5023713;28;20230;-70
2021/05/16 07:02:13;;;;;;;13.27;10.90;;;12.10;99.90;;;;;;5020919;28;20437;-72
2021/05/16 07:04:40;;;;;;;9.77;8.67;;;12.10;99.90;;;;;;5021665;28;20767;-71
2021/05/16 07:07:06;;;;;;;10.40;9.40;;;12.10;99.90;;;;;;5019153;28;20186;-71
2021/05/16 07:09:32;;;;;;;16.47;11.07;;;12.10;99.90;;;;;;5021086;28;20459;-71
2021/05/16 07:11:58;;;;;;;12.17;9.83;;;12.20;99.90;;;;;;5023331;28;20428;-71
2021/05/16 07:14:23;;;;;;;12.20;10.10;;;12.10;99.90;;;;;;5016609;28;20616;-71
2021/05/16 07:16:49;;;;;;;10.20;9.03;;;12.20;99.90;;;;;;5018605;28;20183;-71
2021/05/16 07:19:15;;;;;;;11.50;10.30;;;12.20;99.90;;;;;;5018978;28;20197;-71
2021/05/16 07:21:41;;;;;;;11.90;10.00;;;12.20;99.90;;;;;;5012886;28;20436;-70
2021/05/16 07:24:07;;;;;;;9.20;8.20;;;12.40;99.90;;;;;;5006852;28;20197;-69
2021/05/16 07:26:33;;;;;;;10.47;9.33;;;12.40;99.90;;;;;;5010707;28;20434;-69
2021/05/16 07:28:59;;;;;;;9.67;8.47;;;12.50;99.90;;;;;;5017976;28;20525;-69
2021/05/16 07:31:25;;;;;;;9.70;8.30;;;12.60;99.90;;;;;;5013466;28;20847;-69
2021/05/16 07:33:50;;;;;;;9.70;8.70;;;12.70;99.90;;;;;;5005097;28;20482;-71
2021/05/16 07:36:16;;;;;;;9.13;8.10;;;12.70;99.90;;;;;;5012300;28;20237;-69
2021/05/16 07:38:45;;;;;;;10.27;8.17;;;12.80;99.90;;;;;;5007574;28;20624;-70
2021/05/16 07:41:10;;;;;;;18.10;9.60;;;12.80;99.90;;;;;;5011236;28;20218;-70
2021/05/16 07:43:36;;;;;;;9.37;8.20;;;12.70;99.90;;;;;;5017586;28;20549;-75
2021/05/16 07:46:03;;;;;;;9.90;8.23;;;12.70;99.90;;;;;;5011332;28;20193;-71
2021/05/16 07:48:29;;;;;;;10.10;8.60;;;12.80;99.90;;;;;;5014650;28;20242;-71
2021/05/16 07:50:57;;;;;;;9.77;7.77;;;13.00;99.90;;;;;;5021166;28;20431;-70
2021/05/16 07:53:23;;;;;;;9.83;8.13;;;13.00;99.90;;;;;;5019718;28;20884;-71
2021/05/16 07:55:49;;;;;;;10.27;8.00;;;13.10;99.90;;;;;;5017860;28;20429;-71
2021/05/16 07:58:15;;;;;;;7.73;6.93;;;13.30;99.90;;;;;;5019107;28;20421;-71
2021/05/16 08:00:41;;;;;;;8.53;6.77;;;13.40;99.90;;;;;;5019367;28;20460;-71
2021/05/16 08:03:07;;;;;;;8.57;6.93;;;13.60;99.90;;;;;;5020476;28;20181;-71
2021/05/16 08:05:32;;;;;;;7.50;6.80;;;13.70;99.90;;;;;;5016032;28;20566;-71
2021/05/16 08:07:58;;;;;;;7.20;6.50;;;13.80;99.90;;;;;;5015903;28;20175;-71
2021/05/16 08:10:24;;;;;;;7.00;6.17;;;14.00;99.90;;;;;;5017056;28;20655;-71
2021/05/16 08:12:50;;;;;;;9.03;7.80;;;14.00;99.90;;;;;;5015084;28;20181;-71
2021/05/16 08:15:17;;;;;;;8.57;6.73;;;13.80;99.90;;;;;;5015916;28;20425;-71
2021/05/16 08:17:43;;;;;;;5.43;4.57;;;13.70;99.90;;;;;;5020331;28;20440;-71
2021/05/16 08:20:09;;;;;;;6.30;5.27;;;13.30;99.90;;;;;;5018584;28;20436;-71
2021/05/16 08:22:36;;;;;;;6.97;5.23;;;13.10;99.90;;;;;;5021798;28;20443;-70
2021/05/16 08:25:05;;;;;;;5.20;4.70;;;13.00;99.90;;;;;;5020194;28;20516;-70
2021/05/16 08:27:30;;;;;;;5.47;4.97;;;12.90;99.90;;;;;;5018772;28;20429;-71
2021/05/16 08:29:56;;;;;;;9.73;6.70;;;12.90;99.90;;;;;;5021027;28;20453;-71
2021/05/16 08:32:22;;;;;;;7.23;6.40;;;13.00;99.90;;;;;;5022530;28;20183;-71
2021/05/16 08:34:47;;;;;;;12.13;8.17;;;13.00;99.90;;;;;;5021131;28;20260;-71
2021/05/16 08:37:14;;;;;;;10.70;7.30;;;13.10;99.90;;;;;;5020129;28;20179;-71
2021/05/16 08:39:39;;;;;;;10.60;8.50;;;13.10;99.90;;;;;;5019446;28;20183;-71
2021/05/16 08:42:05;;;;;;;13.10;9.27;;;13.20;99.90;;;;;;5019945;28;20835;-70
2021/05/16 08:44:32;;;;;;;13.37;8.07;;;13.20;99.90;;;;;;5021035;28;20192;-71
2021/05/16 08:47:00;;;;;;;13.07;9.57;;;13.30;99.90;;;;;;5015915;28;20472;-71
2021/05/16 08:49:25;;;;;;;10.67;8.03;;;13.30;99.90;;;;;;5021876;28;20455;-71
2021/05/16 08:51:52;;;;;;;10.17;9.17;;;13.50;99.90;;;;;;5019703;28;20424;-71
2021/05/16 08:54:19;;;;;;;13.60;9.47;;;13.80;99.90;;;;;;5020482;28;20265;-71
2021/05/16 08:56:53;;;;;;;11.67;8.37;;;13.90;99.90;;;;;;5019846;28;20487;-71
2021/05/16 08:59:24;;;;;;;11.90;8.43;;;14.10;99.90;;;;;;5016249;28;20419;-71
2021/05/16 09:01:58;;;;;;;9.07;7.60;;;14.10;99.90;;;;;;5015547;28;20425;-71
2021/05/16 09:04:27;;;;;;;16.10;8.17;;;13.90;99.90;;;;;;5014780;28;20440;-71
2021/05/16 09:06:55;;;;;;;9.67;7.23;;;14.00;99.90;;;;;;5016185;28;20437;-71
2021/05/16 09:09:39;;;;;;;12.00;7.37;;;14.10;99.90;;;;;;5017073;28;20460;-71
2021/05/16 09:12:08;;;;;;;14.20;7.20;;;14.30;99.90;;;;;;5018696;28;20421;-70
2021/05/16 09:14:45;;;;;;;11.33;7.87;;;14.40;99.90;;;;;;5019777;28;20788;-71
2021/05/16 09:17:27;;;;;;;8.93;6.50;;;14.50;99.90;;;;;;5016167;28;20428;-71
2021/05/16 09:20:05;;;;;;;9.57;7.00;;;14.20;99.90;;;;;;5019506;28;20460;-70
2021/05/16 09:22:36;;;;;;;11.43;7.83;;;14.10;99.90;;;;;;5021869;28;20474;-71
2021/05/16 09:25:07;;;;;;;13.83;7.53;;;14.20;99.90;;;;;;5020474;28;20486;-71
2021/05/16 09:27:35;;;;;;;10.67;7.70;;;14.20;99.90;;;;;;5020751;28;20535;-70
2021/05/16 09:30:23;;;;;;;6.27;5.50;;;14.20;99.90;;;;;;5021433;28;20459;-70
2021/05/16 09:33:01;;;;;;;1.90;1.80;;;14.10;99.90;;;;;;5018814;28;20527;-70
2021/05/16 09:35:41;;;;;;;2.23;2.03;;;13.80;99.90;;;;;;5016576;28;20507;-71
2021/05/16 09:38:21;;;;;;;1.83;1.73;;;13.70;99.90;;;;;;5019232;28;20533;-71
2021/05/16 09:40:54;;;;;;;2.30;1.80;;;13.60;99.90;;;;;;5014636;28;20431;-70
2021/05/16 09:43:24;;;;;;;3.70;2.17;;;13.60;99.90;;;;;;5019850;28;20479;-70
2021/05/16 09:46:07;;;;;;;2.70;2.17;;;13.60;99.90;;;;;;5015956;28;20418;-70
2021/05/16 09:48:36;;;;;;;4.23;3.17;;;13.70;99.90;;;;;;5019880;28;21001;-71
2021/05/16 09:51:22;;;;;;;5.37;4.87;;;13.80;99.90;;;;;;5017267;28;20519;-71
2021/05/16 09:54:01;;;;;;;8.03;5.43;;;14.20;99.90;;;;;;5017853;28;20425;-71
2021/05/16 09:56:38;;;;;;;6.97;5.83;;;14.60;99.90;;;;;;5018380;28;20481;-70
2021/05/16 09:59:06;;;;;;;9.23;5.70;;;14.90;99.90;;;;;;5018198;28;20432;-70
2021/05/16 10:01:32;;;;;;;7.53;4.93;;;15.20;99.90;;;;;;5015590;28;20440;-70
2021/05/16 10:04:00;;;;;;;11.13;7.40;;;15.30;99.90;;;;;;5017761;28;20437;-71
2021/05/16 10:06:28;;;;;;;9.70;6.20;;;15.10;99.90;;;;;;5002021;28;20433;-71
2021/05/16 10:08:54;;;;;;;4.43;3.87;;;14.90;99.90;;;;;;5013002;28;21020;-69
2021/05/16 10:11:22;;;;;;;5.43;4.23;;;14.40;99.90;;;;;;5017112;28;20437;-70
2021/05/16 10:13:53;;;;;;;3.33;2.97;;;14.00;99.90;;;;;;5018676;28;20484;-71
2021/05/16 10:16:21;;;;;;;2.97;2.77;;;13.70;99.90;;;;;;5018855;28;20426;-71
2021/05/16 10:18:48;;;;;;;3.80;2.50;;;13.50;99.90;;;;;;5016983;28;20442;-71
2021/05/16 10:21:15;;;;;;;2.30;2.20;;;13.40;99.90;;;;;;5021084;28;20515;-71
2021/05/16 10:23:41;;;;;;;1.97;1.80;;;13.30;99.90;;;;;;5018658;28;20746;-70
2021/05/16 10:26:24;;;;;;;3.73;3.40;;;13.30;99.90;;;;;;5017946;28;20439;-70
2021/05/16 10:28:58;;;;;;;4.73;3.60;;;13.20;99.90;;;;;;5018836;28;20522;-70
2021/05/16 10:31:44;;;;;;;4.33;3.80;;;13.20;99.90;;;;;;5019086;28;20424;-70
2021/05/16 10:34:28;;;;;;;6.50;4.40;;;13.40;99.90;;;;;;5018991;28;20491;-70
2021/05/16 10:37:02;;;;;;;8.23;4.97;;;13.90;99.90;;;;;;5019191;28;20589;-70
2021/05/16 10:39:40;;;;;;;5.43;4.93;;;14.50;99.90;;;;;;5018949;28;20424;-70
2021/05/16 10:42:16;;;;;;;4.70;4.37;;;15.00;99.90;;;;;;5016073;28;20440;-71
2021/05/16 10:45:02;;;;;;;5.63;5.13;;;15.60;99.90;;;;;;5019968;28;20766;-71
2021/05/16 10:47:50;;;;;;;7.07;5.33;;;15.90;99.90;;;;;;5022655;28;20469;-71
2021/05/16 10:50:33;;;;;;;4.90;4.60;;;15.80;99.90;;;;;;5024016;28;20776;-72
2021/05/16 10:53:04;;;;;;;5.87;5.37;;;15.50;99.90;;;;;;5023403;28;20424;-71
2021/05/16 10:55:31;;;;;;;5.10;4.70;;;15.10;99.90;;;;;;5022344;28;20474;-71
2021/05/16 10:57:58;;;;;;;5.03;4.60;;;14.50;99.90;;;;;;5023030;28;20444;-71
2021/05/16 11:00:26;;;;;;;2.40;2.30;;;14.20;99.90;;;;;;5027964;28;20848;-70
2021/05/16 11:02:58;;;;;;;2.63;2.30;;;13.80;99.90;;;;;;5021378;28;20443;-70
2021/05/16 11:08:15;;;;;;;1.87;1.77;;;13.50;99.90;;;;;;5025193;28;20420;-70
2021/05/16 11:10:43;;;;;;;1.80;1.70;;;13.40;99.90;;;;;;5017800;28;20753;-70
2021/05/16 11:13:15;;;;;;;3.80;2.30;;;13.30;99.90;;;;;;5022187;28;20428;-70
2021/05/16 11:15:52;;;;;;;2.23;2.13;;;13.30;99.90;;;;;;5020239;28;20424;-70
2021/05/16 11:18:19;;;;;;;2.10;1.87;;;13.60;99.90;;;;;;5022833;28;20758;-70
2021/05/16 11:20:53;;;;;;;2.23;2.13;;;13.80;99.90;;;;;;5022163;28;20433;-71
2021/05/16 11:23:26;;;;;;;1.30;1.20;;;14.40;99.90;;;;;;5030733;28;20941;-70
2021/05/16 11:25:56;;;;;;;3.17;2.67;;;15.00;99.90;;;;;;5017896;28;20434;-70
2021/05/16 11:28:23;;;;;;;2.80;2.60;;;15.20;99.90;;;;;;5023100;28;20531;-70
2021/05/16 11:30:50;;;;;;;2.27;2.13;;;15.30;99.90;;;;;;5016758;28;20520;-70
2021/05/16 11:33:33;;;;;;;2.70;2.60;;;15.60;99.90;;;;;;5021049;28;20513;-70
2021/05/16 11:36:05;;;;;;;5.07;3.33;;;15.80;99.90;;;;;;5019381;28;20430;-70
2021/05/16 11:38:32;;;;;;;4.07;3.67;;;16.20;99.90;;;;;;5020420;28;20430;-70
2021/05/16 11:40:58;;;;;;;7.10;3.80;;;16.20;99.90;;;;;;5012540;28;20424;-70
2021/05/16 11:43:29;;;;;;;4.13;3.73;;;16.10;99.90;;;;;;5021121;28;20441;-69
2021/05/16 11:45:55;;;;;;;5.10;4.60;;;15.70;99.90;;;;;;5020678;28;20564;-70
2021/05/16 11:48:42;;;;;;;6.33;4.37;;;15.60;99.90;;;;;;5018954;28;20456;-70
2021/05/16 11:51:10;;;;;;;7.30;4.87;;;15.30;99.90;;;;;;5021079;28;20463;-69
2021/05/16 11:53:37;;;;;;;6.23;4.00;;;15.20;99.90;;;;;;5021241;28;20429;-70
2021/05/16 11:56:07;;;;;;;7.10;4.63;;;15.30;99.90;;;;;;5018016;28;20436;-69
2021/05/16 11:58:36;;;;;;;5.00;4.13;;;15.50;99.90;;;;;;5022117;28;20460;-69
2021/05/16 12:01:02;;;;;;;3.40;3.10;;;15.70;99.90;;;;;;5018221;28;20429;-70
2021/05/16 12:03:29;;;;;;;6.90;4.30;;;15.70;99.90;;;;;;5021882;28;20433;-69
2021/05/16 12:06:05;;;;;;;4.97;4.03;;;15.40;99.90;;;;;;5018619;28;20429;-69
2021/05/16 12:08:31;;;;;;;4.83;4.43;;;15.10;99.90;;;;;;5018504;28;20432;-69
2021/05/16 12:11:05;;;;;;;6.10;3.90;;;14.80;99.90;;;;;;5020256;28;20903;-69
2021/05/16 12:13:31;;;;;;;4.30;3.17;;;14.30;99.90;;;;;;5021144;28;20183;-69
2021/05/16 12:16:16;;;;;;;4.67;3.27;;;13.80;99.90;;;;;;5020351;28;20499;-69
2021/05/16 12:18:43;;;;;;;3.60;3.37;;;13.60;99.90;;;;;;5018029;28;20440;-69
2021/05/16 12:21:09;;;;;;;4.40;3.53;;;13.40;99.90;;;;;;5014558;28;20776;-69
2021/05/16 12:23:37;;;;;;;5.70;3.43;;;13.40;99.90;;;;;;5014825;28;20898;-69
2021/05/16 12:26:03;;;;;;;7.33;3.93;;;13.30;99.90;;;;;;5020853;28;20486;-69
2021/05/16 12:28:30;;;;;;;5.77;3.60;;;13.30;99.90;;;;;;5020505;28;20443;-69
2021/05/16 12:30:58;;;;;;;7.70;4.10;;;13.40;99.90;;;;;;5017188;28;20964;-69
2021/05/16 12:33:23;;;;;;;5.73;3.93;;;13.30;99.90;;;;;;5018416;28;20440;-69
2021/05/16 12:35:50;;;;;;;4.70;3.63;;;13.20;99.90;;;;;;5017443;28;20429;-69
2021/05/16 12:38:16;;;;;;;10.23;4.10;;;13.40;99.90;;;;;;5016101;28;20211;-69
2021/05/16 12:40:43;;;;;;;4.50;4.20;;;13.80;99.90;;;;;;5016789;28;20428;-70
2021/05/16 12:43:10;;;;;;;5.60;4.20;;;14.40;99.90;;;;;;5017907;28;20430;-70
2021/05/16 12:45:38;;;;;;;4.17;3.00;;;15.10;99.90;;;;;;5017221;28;20445;-71
2021/05/16 12:48:16;;;;;;;4.50;2.53;;;15.50;99.90;;;;;;5018537;28;20449;-71
2021/05/16 12:50:45;;;;;;;2.53;2.33;;;15.60;99.90;;;;;;5020647;28;20428;-71
2021/05/16 12:53:31;;;;;;;2.37;2.17;;;15.50;99.90;;;;;;5021496;28;20463;-71